Time;durP1;ratioP1;P1;durP2;ratioP2;P2;SDS_P1;SDS_P2;PMS_P1;PMS_P2;Temp;Humidity;BMP_temperature;BMP_pressure;BME280_temperature;BME280_humidity;BME280_pressure;Samples;Min_cycle;Max_cycle;Signal;HPM_P1;HPM_P2
2022/11/15 00:02:11;;;;;;;4.88;3.90;;;12.30;99.90;;;;;;5053214;28;20193;-73
2022/11/15 00:04:39;;;;;;;4.53;3.97;;;12.30;99.90;;;;;;5041917;28;20174;-73
2022/11/15 00:07:09;;;;;;;5.50;4.47;;;12.30;99.90;;;;;;5052359;28;20173;-72
2022/11/15 00:09:37;;;;;;;4.72;3.67;;;12.30;99.90;;;;;;5047207;28;20220;-73
2022/11/15 00:12:05;;;;;;;4.68;3.65;;;12.40;99.90;;;;;;5040254;28;20190;-73
2022/11/15 00:14:31;;;;;;;5.20;4.03;;;12.40;99.90;;;;;;5037345;28;20170;-74
2022/11/15 00:16:59;;;;;;;5.32;4.13;;;12.40;99.90;;;;;;5043305;28;20205;-73
2022/11/15 00:19:27;;;;;;;4.53;3.63;;;12.40;99.90;;;;;;5052853;28;20234;-73
2022/11/15 00:21:57;;;;;;;4.75;3.97;;;12.40;99.90;;;;;;5039761;28;20205;-75
2022/11/15 00:24:23;;;;;;;6.05;3.90;;;12.30;99.90;;;;;;5053200;28;20198;-73
2022/11/15 00:26:48;;;;;;;5.63;4.45;;;12.30;99.90;;;;;;5050676;28;20196;-73
2022/11/15 00:29:18;;;;;;;5.85;4.18;;;12.40;99.90;;;;;;5050600;28;20181;-73
2022/11/15 00:31:44;;;;;;;6.18;4.65;;;12.40;99.90;;;;;;5046843;28;20213;-72
2022/11/15 00:34:10;;;;;;;6.85;4.78;;;12.40;99.90;;;;;;5049161;28;20266;-74
2022/11/15 00:36:41;;;;;;;5.85;4.28;;;12.40;99.90;;;;;;5051697;28;20194;-74
2022/11/15 00:39:09;;;;;;;4.88;4.00;;;12.40;99.90;;;;;;5047188;28;20221;-74
2022/11/15 00:41:37;;;;;;;5.50;4.10;;;12.40;99.90;;;;;;5043739;28;20170;-73
2022/11/15 00:44:03;;;;;;;4.82;4.20;;;12.50;99.90;;;;;;5050485;28;20180;-73
2022/11/15 00:46:28;;;;;;;5.85;4.20;;;12.50;99.90;;;;;;5039633;28;20197;-73
2022/11/15 00:48:54;;;;;;;6.40;4.07;;;12.50;99.90;;;;;;5051353;28;20181;-74
2022/11/15 00:51:22;;;;;;;5.75;4.32;;;12.50;99.90;;;;;;5051768;28;20216;-72
2022/11/15 00:53:47;;;;;;;6.63;4.20;;;12.50;99.90;;;;;;5055029;28;20193;-71
2022/11/15 00:56:13;;;;;;;6.65;4.95;;;12.50;99.90;;;;;;5054222;28;20231;-72
2022/11/15 00:58:39;;;;;;;5.00;4.30;;;12.50;99.90;;;;;;5047324;28;20165;-71
2022/11/15 01:01:14;;;;;;;4.82;4.20;;;12.50;99.90;;;;;;5039565;28;20174;-71
2022/11/15 01:03:42;;;;;;;4.90;3.83;;;12.60;99.90;;;;;;5049251;28;20189;-71
2022/11/15 01:06:08;;;;;;;5.72;4.15;;;12.60;99.90;;;;;;5037154;28;20174;-72
2022/11/15 01:08:34;;;;;;;5.40;4.45;;;12.60;99.90;;;;;;5035382;28;20281;-71
2022/11/15 01:11:06;;;;;;;4.95;3.92;;;12.70;99.90;;;;;;5052015;28;20219;-71
2022/11/15 01:13:38;;;;;;;5.10;4.20;;;12.70;99.90;;;;;;5036952;28;20166;-72
2022/11/15 01:16:16;;;;;;;5.95;4.05;;;12.70;99.90;;;;;;5046508;28;20224;-72
2022/11/15 01:18:42;;;;;;;6.03;3.90;;;12.80;99.90;;;;;;5048481;28;20173;-73
2022/11/15 01:21:21;;;;;;;4.57;4.07;;;12.80;99.90;;;;;;5052903;28;20218;-72
2022/11/15 01:23:46;;;;;;;4.57;3.65;;;12.80;99.90;;;;;;5049595;28;20205;-72
2022/11/15 01:26:14;;;;;;;5.60;4.07;;;12.90;99.90;;;;;;5034691;28;20192;-72
2022/11/15 01:28:41;;;;;;;4.53;3.53;;;12.90;99.90;;;;;;5037780;28;20181;-72
2022/11/15 01:31:14;;;;;;;5.72;4.30;;;13.00;99.90;;;;;;5039183;28;20206;-72
2022/11/15 01:33:40;;;;;;;4.78;3.92;;;13.00;99.90;;;;;;5053783;28;20169;-71
2022/11/15 01:36:08;;;;;;;5.40;4.18;;;13.00;99.90;;;;;;5047938;28;20234;-72
2022/11/15 01:38:34;;;;;;;5.78;4.30;;;13.00;99.90;;;;;;5035091;28;20218;-72
2022/11/15 01:41:02;;;;;;;4.97;4.05;;;13.10;99.90;;;;;;5045366;28;20182;-71
2022/11/15 01:43:28;;;;;;;4.72;3.67;;;13.10;99.90;;;;;;5050384;28;20188;-72
2022/11/15 01:46:24;;;;;;;5.35;4.00;;;13.10;99.90;;;;;;5034633;28;20194;-72
2022/11/15 01:48:54;;;;;;;4.20;3.63;;;13.10;99.90;;;;;;5045621;28;20173;-72
2022/11/15 01:51:22;;;;;;;4.70;4.00;;;13.10;99.90;;;;;;5053042;28;20183;-72
2022/11/15 01:53:51;;;;;;;4.00;3.45;;;13.10;99.90;;;;;;5048810;28;20194;-72
2022/11/15 01:56:21;;;;;;;5.18;4.00;;;13.10;99.90;;;;;;5058675;28;20200;-72
2022/11/15 01:58:47;;;;;;;5.03;3.60;;;13.10;99.90;;;;;;5037352;28;20197;-72
2022/11/15 02:01:14;;;;;;;5.15;3.90;;;13.10;99.90;;;;;;5044493;28;20196;-73
2022/11/15 02:03:58;;;;;;;6.30;4.00;;;13.10;99.90;;;;;;5052128;28;20185;-72
2022/11/15 02:06:24;;;;;;;4.75;3.83;;;13.20;99.90;;;;;;5059984;28;20178;-72
2022/11/15 02:08:50;;;;;;;5.53;3.92;;;13.20;99.90;;;;;;5041718;28;20199;-72
2022/11/15 02:11:16;;;;;;;5.85;3.90;;;13.20;99.90;;;;;;5040614;28;20188;-73
2022/11/15 02:13:44;;;;;;;4.00;3.47;;;13.30;99.90;;;;;;5034541;28;20182;-73
2022/11/15 02:16:28;;;;;;;4.13;3.72;;;13.20;99.90;;;;;;5053274;28;20284;-73
2022/11/15 02:19:28;;;;;;;4.28;3.40;;;13.30;99.90;;;;;;5043457;28;20201;-73
2022/11/15 02:22:28;;;;;;;3.85;3.30;;;13.30;99.90;;;;;;5035073;28;20173;-72
2022/11/15 02:25:03;;;;;;;4.65;3.38;;;13.30;99.90;;;;;;5037176;28;20190;-73
2022/11/15 02:27:49;;;;;;;4.13;3.03;;;13.40;99.90;;;;;;5034563;28;20196;-71
2022/11/15 02:30:47;;;;;;;3.95;3.17;;;13.40;99.90;;;;;;5039312;28;20192;-75
2022/11/15 02:33:40;;;;;;;3.95;3.22;;;13.40;99.90;;;;;;5040452;28;20215;-73
2022/11/15 02:36:21;;;;;;;4.32;3.60;;;13.40;99.90;;;;;;5054419;28;20193;-81
2022/11/15 02:38:59;;;;;;;3.85;3.30;;;13.40;99.90;;;;;;5038219;28;20201;-80
2022/11/15 02:41:39;;;;;;;4.07;3.45;;;13.50;99.90;;;;;;5053738;28;20203;-80
2022/11/15 02:44:14;;;;;;;4.20;3.30;;;13.50;99.90;;;;;;5043802;28;20181;-80
2022/11/15 02:47:16;;;;;;;3.47;3.10;;;13.50;99.90;;;;;;5034364;28;20224;-79
2022/11/15 02:49:43;;;;;;;3.70;3.08;;;13.50;99.90;;;;;;5035106;28;20177;-81
2022/11/15 02:52:14;;;;;;;4.90;3.05;;;13.50;99.90;;;;;;5034150;28;20293;-81
2022/11/15 02:54:42;;;;;;;4.18;3.17;;;13.50;99.90;;;;;;5040863;28;20193;-81
2022/11/15 02:57:16;;;;;;;3.67;3.10;;;13.50;99.90;;;;;;5057486;28;20169;-82
2022/11/15 02:59:49;;;;;;;4.03;3.20;;;13.50;99.90;;;;;;5070349;28;20209;-80
2022/11/15 03:02:36;;;;;;;4.18;3.20;;;13.50;99.90;;;;;;5062632;28;20193;-81
2022/11/15 03:05:18;;;;;;;4.07;3.28;;;13.50;99.90;;;;;;5057275;28;20189;-82
2022/11/15 03:07:52;;;;;;;3.33;3.03;;;13.60;99.90;;;;;;5043946;28;20208;-80
2022/11/15 03:10:45;;;;;;;3.72;3.20;;;13.60;99.90;;;;;;5041802;28;20178;-81
2022/11/15 03:13:28;;;;;;;3.60;3.17;;;13.60;99.90;;;;;;5045413;28;20324;-81
2022/11/15 03:16:10;;;;;;;4.18;3.13;;;13.60;99.90;;;;;;5038105;28;20166;-79
2022/11/15 03:18:43;;;;;;;4.45;3.58;;;13.60;99.90;;;;;;5040008;28;20270;-79
2022/11/15 03:21:14;;;;;;;4.30;3.78;;;13.60;99.90;;;;;;5050122;28;20185;-79
2022/11/15 03:23:41;;;;;;;4.10;3.60;;;13.60;99.90;;;;;;5056052;28;20177;-80
2022/11/15 03:26:16;;;;;;;4.60;3.30;;;13.60;99.90;;;;;;5039791;28;20208;-81
2022/11/15 03:28:54;;;;;;;5.15;3.53;;;13.60;99.90;;;;;;5065977;28;20169;-82
2022/11/15 03:34:34;;;;;;;3.72;3.33;;;13.70;99.90;;;;;;5052456;28;20184;-82
2022/11/15 03:37:01;;;;;;;4.55;3.38;;;13.70;99.90;;;;;;5037403;28;20214;-81
2022/11/15 03:39:28;;;;;;;3.70;3.35;;;13.70;99.90;;;;;;5048406;28;20210;-81
2022/11/15 03:42:19;;;;;;;4.35;3.55;;;13.70;99.90;;;;;;5050857;28;20320;-81
2022/11/15 03:44:49;;;;;;;4.03;3.55;;;13.70;99.90;;;;;;5039775;28;20178;-79
2022/11/15 03:47:28;;;;;;;4.35;3.40;;;13.70;99.90;;;;;;5040845;28;20174;-80
2022/11/15 03:50:06;;;;;;;3.80;3.40;;;13.80;99.90;;;;;;5054028;28;20236;-81
2022/11/15 03:52:34;;;;;;;4.35;3.40;;;13.80;99.90;;;;;;5046393;28;20213;-80
2022/11/15 03:55:01;;;;;;;3.65;3.22;;;13.80;99.90;;;;;;5037123;28;20322;-80
2022/11/15 03:57:27;;;;;;;3.33;2.97;;;13.80;99.90;;;;;;5047653;28;20269;-78
2022/11/15 03:59:52;;;;;;;5.10;3.33;;;13.80;99.90;;;;;;5055425;28;20235;-82
2022/11/15 04:02:18;;;;;;;3.95;3.45;;;13.90;99.90;;;;;;5050569;28;20244;-81
2022/11/15 04:04:44;;;;;;;3.63;3.20;;;13.90;99.90;;;;;;5049887;28;20177;-80
2022/11/15 04:07:10;;;;;;;4.82;4.10;;;13.90;99.90;;;;;;5046434;28;20209;-81
2022/11/15 04:10:01;;;;;;;5.30;4.10;;;13.90;99.90;;;;;;5048034;28;20178;-80
2022/11/15 04:12:33;;;;;;;4.07;3.33;;;13.90;99.90;;;;;;5039388;28;20198;-80
2022/11/15 04:15:11;;;;;;;3.65;3.33;;;13.90;99.90;;;;;;5038825;28;20472;-80
2022/11/15 04:17:47;;;;;;;4.00;3.35;;;13.80;99.90;;;;;;5049761;28;20192;-81
2022/11/15 04:26:04;;;;;;;5.10;3.70;;;13.70;99.90;;;;;;5037535;28;20189;-80
2022/11/15 04:28:30;;;;;;;3.95;3.28;;;13.70;99.90;;;;;;5028764;28;20271;-80
2022/11/15 04:30:56;;;;;;;4.30;3.63;;;13.70;99.90;;;;;;5041451;28;20249;-81
2022/11/15 04:33:23;;;;;;;3.63;3.30;;;13.60;99.90;;;;;;5042601;28;20194;-82
2022/11/15 04:38:48;;;;;;;4.05;3.60;;;13.50;99.90;;;;;;5018122;28;20194;-81
2022/11/15 04:41:14;;;;;;;3.60;3.30;;;13.50;99.90;;;;;;5050890;28;20190;-82
2022/11/15 04:43:44;;;;;;;3.30;3.00;;;13.40;99.90;;;;;;5039999;28;20180;-81
2022/11/15 04:46:10;;;;;;;3.63;2.95;;;13.40;99.90;;;;;;5040608;28;20170;-79
2022/11/15 04:48:40;;;;;;;5.57;3.47;;;13.30;99.90;;;;;;5035580;28;20204;-80
2022/11/15 04:51:06;;;;;;;4.20;3.45;;;13.30;99.90;;;;;;5061684;28;20260;-81
2022/11/15 04:53:32;;;;;;;3.70;3.25;;;13.30;99.90;;;;;;5047699;28;20301;-80
2022/11/15 04:55:57;;;;;;;3.97;3.08;;;13.30;99.90;;;;;;5036185;28;20250;-81
2022/11/15 04:58:25;;;;;;;3.60;3.30;;;13.30;99.90;;;;;;5035901;28;20178;-80
2022/11/15 05:00:51;;;;;;;3.38;2.97;;;13.30;99.90;;;;;;5041732;28;20253;-80
2022/11/15 05:06:01;;;;;;;4.35;2.97;;;13.40;99.90;;;;;;5037486;28;20309;-81
2022/11/15 05:08:27;;;;;;;3.17;2.85;;;13.30;99.90;;;;;;5044500;28;20315;-81
2022/11/15 05:10:55;;;;;;;3.22;2.75;;;13.40;99.90;;;;;;5044585;28;20186;-81
2022/11/15 05:13:23;;;;;;;3.80;3.03;;;13.40;99.90;;;;;;5041568;28;20240;-80
2022/11/15 05:15:49;;;;;;;3.35;3.05;;;13.40;99.90;;;;;;5045249;28;20271;-81
2022/11/15 05:18:14;;;;;;;3.75;3.35;;;13.40;99.90;;;;;;5051101;28;20178;-80
2022/11/15 05:20:40;;;;;;;3.08;2.78;;;13.40;99.90;;;;;;5035815;28;20194;-80
2022/11/15 05:23:05;;;;;;;2.90;2.60;;;13.40;99.90;;;;;;5042552;28;20182;-80
2022/11/15 05:25:35;;;;;;;5.05;2.75;;;13.40;99.90;;;;;;5035356;28;20170;-79
2022/11/15 05:28:01;;;;;;;4.20;2.70;;;13.40;99.90;;;;;;5037550;28;20197;-81
2022/11/15 05:30:27;;;;;;;3.45;2.70;;;13.30;99.90;;;;;;5047202;28;20212;-81
2022/11/15 05:32:56;;;;;;;2.92;2.55;;;13.30;99.90;;;;;;5048920;28;20264;-81
2022/11/15 05:35:31;;;;;;;3.80;2.60;;;13.30;99.90;;;;;;5047228;28;20185;-81
2022/11/15 05:37:57;;;;;;;3.13;2.60;;;13.20;99.90;;;;;;5044501;28;20284;-77
2022/11/15 05:40:24;;;;;;;3.25;2.60;;;13.20;99.90;;;;;;5042715;28;20194;-80
2022/11/15 05:42:50;;;;;;;3.60;2.22;;;13.20;99.90;;;;;;5036577;28;20178;-78
2022/11/15 05:45:16;;;;;;;2.80;2.28;;;13.20;99.90;;;;;;5051513;28;20178;-82
2022/11/15 05:47:42;;;;;;;4.10;2.70;;;13.10;99.90;;;;;;5047531;28;20205;-81
2022/11/15 05:50:12;;;;;;;2.58;2.15;;;13.10;99.90;;;;;;5040710;28;20208;-80
2022/11/15 05:52:43;;;;;;;2.85;2.47;;;13.10;99.90;;;;;;5039076;28;20257;-81
2022/11/15 05:55:09;;;;;;;3.08;2.30;;;13.10;99.90;;;;;;5035308;28;20194;-81
2022/11/15 05:57:35;;;;;;;3.33;2.40;;;13.10;99.90;;;;;;5039434;28;20173;-80
2022/11/15 06:00:02;;;;;;;2.80;2.33;;;13.00;99.90;;;;;;5034186;28;20201;-81
2022/11/15 06:02:28;;;;;;;3.80;2.20;;;13.00;99.90;;;;;;5045070;28;20192;-81
2022/11/15 06:04:56;;;;;;;3.30;2.28;;;13.00;99.90;;;;;;5047248;28;20170;-79
2022/11/15 06:07:22;;;;;;;2.83;2.45;;;13.00;99.90;;;;;;5044946;28;20243;-80
2022/11/15 06:09:47;;;;;;;3.17;2.20;;;13.00;99.90;;;;;;5039701;28;20213;-78
2022/11/15 06:12:17;;;;;;;2.63;2.30;;;12.90;99.90;;;;;;5040336;28;20194;-78
2022/11/15 06:14:45;;;;;;;4.53;2.40;;;13.00;99.90;;;;;;5043152;28;20279;-80
2022/11/15 06:17:11;;;;;;;2.78;2.38;;;12.90;99.90;;;;;;5039407;28;20177;-80
2022/11/15 06:19:37;;;;;;;2.60;2.30;;;12.90;99.90;;;;;;5039965;28;20204;-80
2022/11/15 06:22:05;;;;;;;2.08;1.88;;;12.90;99.90;;;;;;5043792;28;20211;-80
2022/11/15 06:24:33;;;;;;;2.70;2.38;;;12.80;99.90;;;;;;5049762;28;20182;-82
2022/11/15 06:27:01;;;;;;;3.00;2.40;;;12.80;99.90;;;;;;5044319;28;20219;-81
2022/11/15 06:29:27;;;;;;;2.58;2.10;;;12.80;99.90;;;;;;5056301;28;20204;-81
2022/11/15 06:31:52;;;;;;;2.30;2.00;;;12.80;99.90;;;;;;5048461;28;20198;-80
2022/11/15 06:34:23;;;;;;;3.42;1.88;;;12.80;99.90;;;;;;5051257;28;20204;-79
2022/11/15 06:36:53;;;;;;;1.80;1.70;;;12.80;99.90;;;;;;5050926;28;20194;-81
2022/11/15 06:39:19;;;;;;;2.20;1.80;;;12.80;99.90;;;;;;5050855;28;20177;-80
2022/11/15 06:41:47;;;;;;;2.13;1.92;;;12.80;99.90;;;;;;5053999;28;20200;-80
2022/11/15 06:44:16;;;;;;;2.97;2.00;;;12.70;99.90;;;;;;5053135;28;20192;-80
2022/11/15 06:46:41;;;;;;;3.17;1.85;;;12.80;99.90;;;;;;5041666;28;20360;-81
2022/11/15 06:49:12;;;;;;;2.00;1.80;;;12.70;99.90;;;;;;5037384;28;20211;-80
2022/11/15 06:51:37;;;;;;;2.10;1.73;;;12.70;99.90;;;;;;5049862;28;20208;-80
2022/11/15 06:54:03;;;;;;;2.70;1.90;;;12.70;99.90;;;;;;5052566;28;20173;-81
2022/11/15 06:56:29;;;;;;;2.15;1.92;;;12.70;99.90;;;;;;5038190;28;20178;-80
2022/11/15 06:58:57;;;;;;;2.30;1.98;;;12.70;99.90;;;;;;5052239;28;20173;-79
2022/11/15 07:01:25;;;;;;;2.03;1.77;;;12.70;99.90;;;;;;5051897;28;20220;-80
2022/11/15 07:03:51;;;;;;;2.88;1.67;;;12.70;99.90;;;;;;5040047;28;20178;-81
2022/11/15 07:06:16;;;;;;;2.67;1.70;;;12.60;99.90;;;;;;5040875;28;20273;-80
2022/11/15 07:08:42;;;;;;;2.00;1.80;;;12.60;99.90;;;;;;5039450;28;20397;-80
2022/11/15 07:11:08;;;;;;;2.28;1.70;;;12.60;99.90;;;;;;5053176;28;20192;-80
2022/11/15 07:13:38;;;;;;;2.10;1.67;;;12.70;99.90;;;;;;5038618;28;20198;-79
2022/11/15 07:16:05;;;;;;;2.58;1.85;;;12.60;99.90;;;;;;5052767;28;20203;-80
2022/11/15 07:18:33;;;;;;;2.17;1.67;;;12.60;99.90;;;;;;5054505;28;20169;-80
2022/11/15 07:21:04;;;;;;;6.97;1.90;;;12.60;99.90;;;;;;5057643;28;20182;-80
2022/11/15 07:23:32;;;;;;;2.05;1.60;;;12.60;99.90;;;;;;5043590;28;20224;-79
2022/11/15 07:25:58;;;;;;;1.90;1.60;;;12.60;99.90;;;;;;5038311;28;20178;-79
2022/11/15 07:28:28;;;;;;;2.05;1.80;;;12.60;99.90;;;;;;5051982;28;20231;-79
2022/11/15 07:30:56;;;;;;;2.28;1.63;;;12.60;99.90;;;;;;5053031;28;20182;-80
2022/11/15 07:33:24;;;;;;;2.95;1.63;;;12.60;99.90;;;;;;5039103;28;20216;-79
2022/11/15 07:35:50;;;;;;;2.95;1.95;;;12.60;99.90;;;;;;5057656;28;20259;-80
2022/11/15 07:38:21;;;;;;;2.15;1.60;;;12.70;99.90;;;;;;5049074;28;20186;-80
2022/11/15 07:40:47;;;;;;;2.47;1.55;;;12.70;99.90;;;;;;5045563;28;20530;-80
2022/11/15 07:43:13;;;;;;;1.77;1.40;;;12.70;99.90;;;;;;5037950;28;20202;-79
2022/11/15 07:45:45;;;;;;;1.98;1.38;;;12.70;99.90;;;;;;5045306;28;20185;-80
2022/11/15 07:48:14;;;;;;;2.33;1.30;;;12.70;99.90;;;;;;5041683;28;20227;-80
2022/11/15 07:50:43;;;;;;;1.65;1.35;;;12.70;99.90;;;;;;5044224;28;20178;-80
2022/11/15 07:53:11;;;;;;;1.63;1.42;;;12.70;99.90;;;;;;5042046;28;20259;-80
2022/11/15 07:55:41;;;;;;;1.52;1.38;;;12.70;99.90;;;;;;5049980;28;20244;-81
2022/11/15 07:58:12;;;;;;;3.17;1.40;;;12.80;99.90;;;;;;5043045;28;20196;-80
2022/11/15 08:00:38;;;;;;;2.17;1.27;;;12.80;99.90;;;;;;5052695;28;20178;-80
2022/11/15 08:03:16;;;;;;;2.10;1.48;;;12.80;99.90;;;;;;5051026;28;20197;-81
2022/11/15 08:05:42;;;;;;;1.60;1.48;;;12.80;99.90;;;;;;5037033;28;20235;-79
2022/11/15 08:08:10;;;;;;;2.17;1.38;;;12.80;99.90;;;;;;5053832;28;20269;-80
2022/11/15 08:10:37;;;;;;;1.60;1.30;;;12.90;99.90;;;;;;5039975;28;20233;-80
2022/11/15 08:13:08;;;;;;;3.03;1.55;;;12.90;99.90;;;;;;5047863;28;20208;-79
2022/11/15 08:15:37;;;;;;;2.30;1.45;;;12.90;99.90;;;;;;5037373;28;20170;-80
2022/11/15 08:18:09;;;;;;;1.92;1.40;;;12.90;99.90;;;;;;5056840;28;20197;-80
2022/11/15 08:20:35;;;;;;;2.13;1.50;;;12.90;99.90;;;;;;5048365;28;20197;-80
2022/11/15 08:23:05;;;;;;;1.83;1.50;;;13.00;99.90;;;;;;5053862;28;20198;-81
2022/11/15 08:25:33;;;;;;;2.03;1.48;;;13.00;99.90;;;;;;5037384;28;20178;-81
2022/11/15 08:28:04;;;;;;;2.58;1.27;;;13.00;99.90;;;;;;5052050;28;20276;-80
2022/11/15 08:30:30;;;;;;;2.55;1.40;;;13.00;99.90;;;;;;5053600;28;20263;-79
2022/11/15 08:32:57;;;;;;;1.58;1.48;;;13.10;99.90;;;;;;5053955;28;20312;-80
2022/11/15 08:35:26;;;;;;;2.17;1.40;;;13.10;99.90;;;;;;5044186;28;20235;-80
2022/11/15 08:37:53;;;;;;;1.40;1.30;;;13.10;99.90;;;;;;5037787;28;20202;-80
2022/11/15 08:40:19;;;;;;;2.40;1.40;;;13.10;99.90;;;;;;5037739;28;20220;-81
2022/11/15 08:42:47;;;;;;;1.52;1.20;;;13.20;99.90;;;;;;5045842;28;20178;-81
2022/11/15 08:45:17;;;;;;;2.50;1.40;;;13.30;99.90;;;;;;5053465;28;20189;-81
2022/11/15 08:47:45;;;;;;;1.40;1.10;;;13.30;99.90;;;;;;5041306;28;20224;-80
2022/11/15 08:50:13;;;;;;;2.80;1.20;;;13.40;99.90;;;;;;5045777;28;20193;-81
2022/11/15 08:52:38;;;;;;;1.20;1.10;;;13.40;99.90;;;;;;5052027;28;20280;-83
2022/11/15 08:55:05;;;;;;;1.75;0.95;;;13.50;99.90;;;;;;5036194;28;20267;-81
2022/11/15 08:57:30;;;;;;;2.08;1.13;;;13.60;99.90;;;;;;5050055;28;20204;-81
2022/11/15 08:59:56;;;;;;;1.30;0.90;;;13.70;99.90;;;;;;5050375;28;20170;-78
2022/11/15 09:02:25;;;;;;;1.73;1.25;;;13.90;99.90;;;;;;5049917;28;20180;-80
2022/11/15 09:04:50;;;;;;;1.35;0.93;;;14.10;99.90;;;;;;5054180;28;20205;-79
2022/11/15 09:07:16;;;;;;;1.50;1.10;;;14.30;99.90;;;;;;5039070;28;20182;-79
2022/11/15 09:09:42;;;;;;;0.90;0.70;;;14.50;99.90;;;;;;5046605;28;20220;-80
2022/11/15 09:12:08;;;;;;;1.70;0.90;;;14.70;99.90;;;;;;5051918;28;20320;-79
2022/11/15 09:14:34;;;;;;;0.70;0.70;;;14.90;99.90;;;;;;5054634;28;20181;-82
2022/11/15 09:17:06;;;;;;;1.55;0.70;;;15.00;99.90;;;;;;5047100;28;20196;-80
2022/11/15 09:19:32;;;;;;;1.58;0.60;;;15.10;99.90;;;;;;5040630;28;20184;-81
2022/11/15 09:21:58;;;;;;;1.27;0.57;;;15.10;99.90;;;;;;5038245;28;20198;-78
2022/11/15 09:24:25;;;;;;;2.50;0.60;;;15.20;99.90;;;;;;5046668;28;20232;-79
2022/11/15 09:26:52;;;;;;;1.75;0.80;;;15.30;99.90;;;;;;5053998;28;20173;-80
2022/11/15 09:29:20;;;;;;;0.75;0.45;;;15.40;99.90;;;;;;5043592;28;20267;-81
2022/11/15 09:31:47;;;;;;;2.17;0.80;;;15.60;99.90;;;;;;5048684;28;20206;-81
2022/11/15 09:34:15;;;;;;;1.30;0.60;;;15.70;99.90;;;;;;5041399;28;20165;-82
2022/11/15 09:36:41;;;;;;;1.40;0.60;;;15.80;99.90;;;;;;5046151;28;20190;-81
2022/11/15 09:39:09;;;;;;;1.55;0.85;;;16.00;99.90;;;;;;5050530;28;20207;-79
2022/11/15 09:41:35;;;;;;;1.27;0.70;;;16.00;99.90;;;;;;5036967;28;20170;-82
2022/11/15 09:44:27;;;;;;;1.67;0.60;;;16.10;99.90;;;;;;5040110;28;20258;-82
2022/11/15 09:47:05;;;;;;;1.10;0.68;;;16.10;99.90;;;;;;5048463;28;20182;-81
2022/11/15 09:49:31;;;;;;;1.20;0.50;;;16.10;99.90;;;;;;5039060;28;20235;-80
2022/11/15 09:51:57;;;;;;;1.70;0.60;;;16.00;99.90;;;;;;5053419;28;20276;-83
2022/11/15 09:54:34;;;;;;;1.38;0.60;;;16.10;99.90;;;;;;5036679;28;20273;-81
2022/11/15 09:57:08;;;;;;;1.42;0.50;;;16.10;99.90;;;;;;5053497;28;20223;-80
2022/11/15 10:00:08;;;;;;;1.10;0.50;;;16.20;99.90;;;;;;5035973;28;20173;-80
2022/11/15 10:02:45;;;;;;;1.63;0.60;;;16.20;99.90;;;;;;5051651;28;20169;-80
2022/11/15 10:05:20;;;;;;;1.17;0.50;;;16.20;99.90;;;;;;5037322;28;20263;-82
2022/11/15 10:08:03;;;;;;;0.98;0.50;;;16.20;99.90;;;;;;5052774;28;20271;-81
2022/11/15 10:10:46;;;;;;;1.08;0.63;;;16.20;99.90;;;;;;5056665;28;20182;-81
2022/11/15 10:13:22;;;;;;;2.08;0.60;;;16.20;99.90;;;;;;5056082;28;20200;-79
2022/11/15 10:15:50;;;;;;;0.90;0.50;;;16.20;99.90;;;;;;5047612;28;20205;-79
2022/11/15 10:18:35;;;;;;;1.20;0.63;;;16.20;99.90;;;;;;5046070;28;20208;-79
2022/11/15 10:21:14;;;;;;;0.90;0.55;;;16.30;99.90;;;;;;5057853;28;20265;-81
2022/11/15 10:23:43;;;;;;;1.08;0.50;;;16.30;99.90;;;;;;5059931;28;20161;-82
2022/11/15 10:26:16;;;;;;;0.65;0.47;;;16.40;99.90;;;;;;5057559;28;20213;-81
2022/11/15 10:28:44;;;;;;;2.10;0.68;;;16.50;99.90;;;;;;5055658;28;20180;-83
2022/11/15 10:31:30;;;;;;;0.65;0.50;;;16.60;99.90;;;;;;5038563;28;20260;-80
2022/11/15 10:34:15;;;;;;;0.82;0.55;;;16.60;99.90;;;;;;5039477;28;20182;-81
2022/11/15 10:36:53;;;;;;;1.20;0.60;;;16.70;99.90;;;;;;5051525;28;20252;-73
2022/11/15 10:39:19;;;;;;;2.63;0.63;;;16.80;99.90;;;;;;5055145;28;20173;-73
2022/11/15 10:41:44;;;;;;;1.15;0.60;;;16.80;99.90;;;;;;5051798;28;20188;-73
2022/11/15 10:44:23;;;;;;;1.25;0.70;;;16.90;99.90;;;;;;5047395;28;20255;-73
2022/11/15 10:46:55;;;;;;;3.05;0.50;;;16.90;99.90;;;;;;5041097;28;20184;-72
2022/11/15 10:49:28;;;;;;;1.40;0.63;;;17.00;99.90;;;;;;5055772;28;20182;-74
2022/11/15 10:52:22;;;;;;;0.80;0.57;;;17.10;99.90;;;;;;5049492;28;20197;-72
2022/11/15 10:55:06;;;;;;;1.05;0.60;;;17.10;99.90;;;;;;5041597;28;20190;-73
2022/11/15 10:57:37;;;;;;;1.17;0.60;;;17.00;99.90;;;;;;5043754;28;20173;-72
2022/11/15 11:00:26;;;;;;;1.38;0.68;;;17.00;99.90;;;;;;5038591;28;20217;-72
2022/11/15 11:02:55;;;;;;;2.00;0.60;;;17.10;99.90;;;;;;5045468;28;20205;-74
2022/11/15 11:05:28;;;;;;;0.60;0.40;;;17.10;99.90;;;;;;5039058;28;20419;-73
2022/11/15 11:08:05;;;;;;;0.93;0.65;;;17.20;99.90;;;;;;5039034;28;20257;-72
2022/11/15 11:10:31;;;;;;;2.13;0.75;;;17.20;99.90;;;;;;5055534;28;20172;-73
2022/11/15 11:13:22;;;;;;;1.42;0.60;;;17.30;99.90;;;;;;5057201;28;20213;-73
2022/11/15 11:15:55;;;;;;;1.38;0.60;;;17.40;99.90;;;;;;5053313;28;20185;-73
2022/11/15 11:18:51;;;;;;;1.92;0.73;;;17.40;99.90;;;;;;5055561;28;20284;-73
2022/11/15 11:21:40;;;;;;;4.40;0.68;;;17.40;99.90;;;;;;5048141;28;20177;-74
2022/11/15 11:24:29;;;;;;;1.42;0.80;;;17.40;99.90;;;;;;5053563;28;20174;-73
2022/11/15 11:27:13;;;;;;;2.17;0.70;;;17.40;99.90;;;;;;5050339;28;20373;-74
2022/11/15 11:29:46;;;;;;;1.50;0.63;;;17.50;99.90;;;;;;5047944;28;20185;-73
2022/11/15 11:32:23;;;;;;;0.82;0.50;;;17.50;99.90;;;;;;5050700;28;20205;-73
2022/11/15 11:35:08;;;;;;;2.03;0.63;;;17.60;99.90;;;;;;5042593;28;20170;-73
2022/11/15 11:37:45;;;;;;;1.63;0.70;;;17.60;99.90;;;;;;5038912;28;20197;-74
2022/11/15 11:40:32;;;;;;;1.98;0.80;;;17.70;99.90;;;;;;5049979;28;20184;-73
2022/11/15 11:43:01;;;;;;;2.25;1.00;;;17.80;99.90;;;;;;5043107;28;20205;-76
2022/11/15 11:45:35;;;;;;;1.30;0.80;;;18.00;99.90;;;;;;5053277;28;20177;-75
2022/11/15 11:48:13;;;;;;;1.80;0.90;;;18.10;99.90;;;;;;5043399;28;20181;-74
2022/11/15 11:50:40;;;;;;;0.70;0.60;;;18.20;99.90;;;;;;5051650;28;20181;-74
2022/11/15 11:53:26;;;;;;;1.20;0.60;;;18.30;99.90;;;;;;5056384;28;20358;-75
2022/11/15 11:55:56;;;;;;;1.98;0.93;;;18.40;99.90;;;;;;5049177;28;20178;-74
2022/11/15 11:58:40;;;;;;;1.75;0.80;;;18.60;99.90;;;;;;5038754;28;20197;-75
2022/11/15 12:01:35;;;;;;;1.52;0.85;;;18.70;99.90;;;;;;5056353;28;20170;-74
2022/11/15 12:04:31;;;;;;;1.83;0.80;;;18.80;99.90;;;;;;5031563;28;20416;-73
2022/11/15 12:07:02;;;;;;;1.27;0.70;;;18.70;99.90;;;;;;5044600;28;20217;-73
2022/11/15 12:09:43;;;;;;;1.42;0.82;;;18.70;99.90;;;;;;5039938;28;20394;-74
2022/11/15 12:12:31;;;;;;;3.05;1.20;;;18.60;99.90;;;;;;5046543;28;20205;-75
2022/11/15 12:15:10;;;;;;;2.85;1.20;;;18.60;99.90;;;;;;5052984;28;20174;-74
2022/11/15 12:17:38;;;;;;;1.80;1.10;;;18.50;99.90;;;;;;5040232;28;20178;-74
2022/11/15 12:20:19;;;;;;;2.55;1.05;;;18.40;99.90;;;;;;5041240;28;20392;-75
2022/11/15 12:22:49;;;;;;;2.72;1.10;;;18.40;99.90;;;;;;5054358;28;20198;-74
2022/11/15 12:25:22;;;;;;;2.67;1.20;;;18.30;99.90;;;;;;5047031;28;20181;-73
2022/11/15 12:28:19;;;;;;;1.63;1.10;;;18.20;99.90;;;;;;5043365;28;20186;-74
2022/11/15 12:30:55;;;;;;;1.73;1.10;;;18.00;99.90;;;;;;5034186;28;20185;-74
2022/11/15 12:33:35;;;;;;;1.90;1.10;;;17.90;99.90;;;;;;5037388;28;20237;-72
2022/11/15 12:36:09;;;;;;;1.92;1.15;;;17.70;99.90;;;;;;5042411;28;20181;-73
2022/11/15 12:39:00;;;;;;;1.65;1.23;;;17.60;99.90;;;;;;5043444;28;20322;-72
2022/11/15 12:41:34;;;;;;;2.15;1.27;;;17.50;99.90;;;;;;5051956;28;20199;-73
2022/11/15 12:44:00;;;;;;;3.15;1.40;;;17.40;99.90;;;;;;5036178;28;20247;-72
2022/11/15 12:46:31;;;;;;;2.97;1.13;;;17.30;99.90;;;;;;5048800;28;20194;-73
2022/11/15 12:48:59;;;;;;;1.75;1.13;;;17.20;99.90;;;;;;5052656;28;20178;-73
2022/11/15 12:51:48;;;;;;;3.40;1.50;;;17.20;99.90;;;;;;5048831;28;20194;-74
2022/11/15 12:54:23;;;;;;;1.90;1.48;;;17.10;99.90;;;;;;5027148;28;20185;-73
2022/11/15 12:57:07;;;;;;;4.63;1.50;;;17.10;99.90;;;;;;5051603;28;20188;-73
2022/11/15 12:59:51;;;;;;;2.35;1.40;;;17.00;99.90;;;;;;5053853;28;20228;-74
2022/11/15 13:02:17;;;;;;;2.20;1.55;;;17.00;99.90;;;;;;5038600;28;20268;-74
2022/11/15 13:04:43;;;;;;;1.33;1.20;;;17.00;99.90;;;;;;5035914;28;20285;-74
2022/11/15 13:07:34;;;;;;;3.20;1.45;;;17.00;99.90;;;;;;5039227;28;20200;-74
2022/11/15 13:10:04;;;;;;;3.65;1.50;;;17.00;99.90;;;;;;5051946;28;20202;-75
2022/11/15 13:12:29;;;;;;;2.22;1.50;;;17.00;99.90;;;;;;5038660;28;20201;-74
2022/11/15 13:15:24;;;;;;;1.73;1.40;;;17.00;99.90;;;;;;5040488;28;20188;-74
2022/11/15 13:17:55;;;;;;;1.83;1.40;;;17.00;99.90;;;;;;5051699;28;20186;-74
2022/11/15 13:20:34;;;;;;;1.88;1.40;;;17.00;99.90;;;;;;5045980;28;20178;-74
2022/11/15 13:23:04;;;;;;;2.10;1.65;;;17.00;99.90;;;;;;5053566;28;20201;-74
2022/11/15 13:25:35;;;;;;;2.03;1.58;;;16.90;99.90;;;;;;5054851;28;20207;-74
2022/11/15 13:28:09;;;;;;;2.65;1.50;;;16.80;99.90;;;;;;5053801;28;20181;-75